Current | Forecast
Updated: 12:50 AM CEST on April 24, 2018
Observed at Skovde Flygplats, Sweden
Temperature 46°F
Windchill 41°F
Humidity 66%
Dew Point 36°F
Wind WSW at 12 mph
Pressure 29.59 in (Steady)
Conditions Overcast
Visibility 6.2 miles
UV 0 out of 16
Clouds Overcast (OVC) : 1700 ft
Yesterday's Maximum 52°F
Yesterday's Minimum 36°F approx.
Yesterday's Heating Degree Days 21 approx.
Sunrise5:29 AM CEST
Sunset8:37 PM CEST
Moon Rise1:06 PM CEST
Moon Set4:09 AM CEST
Moon PhaseMoon Phase
Waxing Gibbous
Raw METARMETAR ESGR 232250Z AUTO 25010KT 200V270 9999 OVC017/// 08/02 Q1002


Monday
. High: 55° F.
Tuesday
. High: 53° F.
Wednesday
. High: 60° F.
Thursday
. High: 59° F.
Friday
. High: 50° F.
Saturday
. High: 51° F.
Sunday
. High: 57° F.
Monday
. High: 55° F.

Units: English | Metric

Find the Weather for any City, State or Zipcode, or Country:

U.S. State List | Severe Weather | Tropical Storms | Ski Conditions
United States | Canada | Central America | South America | Asia | Europe | Australia | Africa | Islands

Weather Underground

© Copyright 2018
The Weather Company, LLC